Time;durP1;ratioP1;P1;durP2;ratioP2;P2;SDS_P1;SDS_P2;PMS_P1;PMS_P2;Temp;Humidity;BMP_temperature;BMP_pressure;BME280_temperature;BME280_humidity;BME280_pressure;Samples;Min_cycle;Max_cycle;Signal;HPM_P1;HPM_P2
2021/07/31 00:01:13;;;;;;;8.63;3.42;;;15.80;99.90;;;;;;5075165;28;20041;-67
2021/07/31 00:03:39;;;;;;;9.00;3.20;;;15.80;99.90;;;;;;5074944;28;20032;-66
2021/07/31 00:06:06;;;;;;;6.82;2.78;;;15.80;99.90;;;;;;5075186;28;20119;-66
2021/07/31 00:08:32;;;;;;;8.57;2.85;;;15.80;99.90;;;;;;5074500;28;20048;-66
2021/07/31 00:10:59;;;;;;;9.90;3.33;;;15.80;99.90;;;;;;5075019;28;20080;-66
2021/07/31 00:13:26;;;;;;;11.20;3.47;;;15.80;99.90;;;;;;5074651;28;20458;-66
2021/07/31 00:15:52;;;;;;;6.43;3.70;;;15.80;99.90;;;;;;5075197;28;20170;-66
2021/07/31 00:18:18;;;;;;;11.90;4.38;;;15.70;99.90;;;;;;5075082;28;20119;-67
2021/07/31 00:20:44;;;;;;;6.47;3.13;;;15.80;99.90;;;;;;5074849;28;20045;-67
2021/07/31 00:23:10;;;;;;;10.80;3.15;;;15.80;99.90;;;;;;5074751;28;20041;-66
2021/07/31 00:25:36;;;;;;;7.18;2.90;;;15.80;99.90;;;;;;5075132;28;20068;-66
2021/07/31 00:28:03;;;;;;;10.43;2.83;;;15.80;99.90;;;;;;5074556;28;20412;-67
2021/07/31 00:30:29;;;;;;;7.05;2.88;;;15.80;99.90;;;;;;5074096;28;20048;-66
2021/07/31 00:32:55;;;;;;;6.93;2.88;;;15.70;99.90;;;;;;5074446;28;20036;-66
2021/07/31 00:35:22;;;;;;;6.90;2.50;;;15.70;99.90;;;;;;5074989;28;20033;-66
2021/07/31 00:37:47;;;;;;;3.40;2.63;;;15.80;99.90;;;;;;5074214;28;20547;-66
2021/07/31 00:40:13;;;;;;;6.47;2.90;;;15.70;99.90;;;;;;5074284;28;20051;-66
2021/07/31 00:42:41;;;;;;;6.50;3.08;;;15.70;99.90;;;;;;5074367;28;20400;-66
2021/07/31 00:45:11;;;;;;;7.45;3.00;;;15.70;99.90;;;;;;5074451;28;20040;-66
2021/07/31 00:47:38;;;;;;;7.75;2.92;;;15.70;99.90;;;;;;5074087;28;20049;-67
2021/07/31 00:50:04;;;;;;;8.60;3.42;;;15.60;99.90;;;;;;5073784;28;20043;-66
2021/07/31 00:52:31;;;;;;;9.45;3.70;;;15.60;99.90;;;;;;5074179;28;20044;-66
2021/07/31 00:54:59;;;;;;;7.40;2.92;;;15.70;99.90;;;;;;5074044;28;20512;-66
2021/07/31 00:57:26;;;;;;;11.20;3.33;;;15.60;99.90;;;;;;5074237;28;20522;-66
2021/07/31 00:59:52;;;;;;;6.90;2.72;;;15.60;99.90;;;;;;5073699;28;20098;-66
2021/07/31 01:02:18;;;;;;;9.05;2.88;;;15.60;99.90;;;;;;5073702;28;20040;-66
2021/07/31 01:04:43;;;;;;;7.18;3.15;;;15.60;99.90;;;;;;5073797;28;20048;-66
2021/07/31 01:07:09;;;;;;;8.63;3.13;;;15.60;99.90;;;;;;5073727;28;20044;-66
2021/07/31 01:09:36;;;;;;;9.10;3.30;;;15.60;99.90;;;;;;5073556;28;20072;-66
2021/07/31 01:12:02;;;;;;;5.30;2.88;;;15.60;99.90;;;;;;5073647;28;20036;-66
2021/07/31 01:14:28;;;;;;;12.05;3.10;;;15.60;99.90;;;;;;5074112;28;20048;-66
2021/07/31 01:16:55;;;;;;;9.35;3.97;;;15.60;99.90;;;;;;5074170;28;20045;-66
2021/07/31 01:19:21;;;;;;;5.07;3.15;;;15.60;99.90;;;;;;5073569;28;20124;-66
2021/07/31 01:21:47;;;;;;;6.10;3.00;;;15.50;99.90;;;;;;5074059;28;20076;-66
2021/07/31 01:24:14;;;;;;;8.25;3.28;;;15.50;99.90;;;;;;5073581;28;20124;-66
2021/07/31 01:26:41;;;;;;;7.72;3.58;;;15.50;99.90;;;;;;5073872;28;20111;-66
2021/07/31 01:29:08;;;;;;;6.13;3.38;;;15.50;99.90;;;;;;5073600;28;20048;-66
2021/07/31 01:31:35;;;;;;;6.72;3.45;;;15.60;99.90;;;;;;5074038;28;20032;-67
2021/07/31 01:34:02;;;;;;;5.68;3.72;;;15.50;99.90;;;;;;5073392;28;20041;-66
2021/07/31 01:36:28;;;;;;;9.75;3.85;;;15.50;99.90;;;;;;5073330;28;20493;-66
2021/07/31 01:38:57;;;;;;;7.13;4.32;;;15.60;99.90;;;;;;5072994;28;20047;-66
2021/07/31 01:41:23;;;;;;;13.38;4.75;;;15.50;99.90;;;;;;5073745;28;20064;-66
2021/07/31 01:43:50;;;;;;;9.57;4.82;;;15.50;99.90;;;;;;5073367;28;20042;-67
2021/07/31 01:46:16;;;;;;;12.68;4.45;;;15.50;99.90;;;;;;5073254;28;20106;-66
2021/07/31 01:48:42;;;;;;;12.00;4.88;;;15.50;99.90;;;;;;5073282;28;20044;-66
2021/07/31 01:51:08;;;;;;;13.93;4.72;;;15.50;99.90;;;;;;5071947;28;20036;-66
2021/07/31 01:53:34;;;;;;;7.03;4.07;;;15.50;99.90;;;;;;5073270;28;20041;-66
2021/07/31 01:56:00;;;;;;;17.20;5.72;;;15.50;99.90;;;;;;5074858;28;20040;-66
2021/07/31 01:58:25;;;;;;;9.25;4.35;;;15.50;99.90;;;;;;5077160;28;20043;-66
2021/07/31 02:00:55;;;;;;;9.18;5.07;;;15.50;99.90;;;;;;5076952;28;20102;-66
2021/07/31 02:03:21;;;;;;;9.38;5.28;;;15.50;99.90;;;;;;5077579;28;20465;-66
2021/07/31 02:05:47;;;;;;;10.77;5.00;;;15.40;99.90;;;;;;5077358;28;20044;-66
2021/07/31 02:08:13;;;;;;;14.50;5.57;;;15.50;99.90;;;;;;5077703;28;20574;-67
2021/07/31 02:10:39;;;;;;;10.70;5.22;;;15.40;99.90;;;;;;5077296;28;20468;-67
2021/07/31 02:13:04;;;;;;;11.27;6.10;;;15.40;99.90;;;;;;5077549;28;20044;-66
2021/07/31 02:15:31;;;;;;;12.20;4.97;;;15.40;99.90;;;;;;5077370;28;20040;-66
2021/07/31 02:17:57;;;;;;;12.70;5.97;;;15.40;99.90;;;;;;5077049;28;20036;-66
2021/07/31 02:20:23;;;;;;;10.88;5.90;;;15.40;99.90;;;;;;5076938;28;20178;-66
2021/07/31 02:22:50;;;;;;;11.20;5.68;;;15.40;99.90;;;;;;5077409;28;20457;-66
2021/07/31 02:25:15;;;;;;;14.38;5.68;;;15.50;99.90;;;;;;5077490;28;20040;-67
2021/07/31 02:27:41;;;;;;;11.93;6.03;;;15.40;99.90;;;;;;5077184;28;20496;-66
2021/07/31 02:30:08;;;;;;;9.65;5.30;;;15.50;99.90;;;;;;5076505;28;20116;-66
2021/07/31 02:32:33;;;;;;;12.82;6.22;;;15.50;99.90;;;;;;5076653;28;20510;-66
2021/07/31 02:34:59;;;;;;;12.77;6.55;;;15.50;99.90;;;;;;5076494;28;20114;-66
2021/07/31 02:37:24;;;;;;;12.73;6.32;;;15.50;99.90;;;;;;5076818;28;20041;-66
2021/07/31 02:39:50;;;;;;;17.92;6.78;;;15.50;99.90;;;;;;5076264;28;20041;-66
2021/07/31 02:42:16;;;;;;;10.43;6.00;;;15.50;99.90;;;;;;5076282;28;20131;-66
2021/07/31 02:44:42;;;;;;;15.50;7.47;;;15.50;99.90;;;;;;5076572;28;20550;-67
2021/07/31 02:47:07;;;;;;;13.55;6.40;;;15.50;99.90;;;;;;5076582;28;20047;-66
2021/07/31 02:49:33;;;;;;;12.60;6.80;;;15.50;99.90;;;;;;5076465;28;20064;-66
2021/07/31 02:51:59;;;;;;;13.30;6.38;;;15.50;99.90;;;;;;5076312;28;20431;-66
2021/07/31 02:54:25;;;;;;;10.55;6.80;;;15.50;99.90;;;;;;5076447;28;20040;-66
2021/07/31 02:56:50;;;;;;;12.30;5.97;;;15.60;99.90;;;;;;5076231;28;20377;-66
2021/07/31 02:59:16;;;;;;;10.40;6.20;;;15.60;99.90;;;;;;5076183;28;20378;-67
2021/07/31 03:01:42;;;;;;;14.48;6.40;;;15.60;99.90;;;;;;5076375;28;20041;-66
2021/07/31 03:04:07;;;;;;;13.30;7.70;;;15.60;99.90;;;;;;5076181;28;20085;-67
2021/07/31 03:06:33;;;;;;;13.10;6.63;;;15.60;99.90;;;;;;5076411;28;20060;-66
2021/07/31 03:08:59;;;;;;;13.80;7.68;;;15.50;99.90;;;;;;5075682;28;20036;-66
2021/07/31 03:11:24;;;;;;;14.90;7.70;;;15.50;99.90;;;;;;5075844;28;20472;-66
2021/07/31 03:13:50;;;;;;;13.25;6.95;;;15.50;99.90;;;;;;5076069;28;20476;-66
2021/07/31 03:16:16;;;;;;;11.27;7.20;;;15.50;99.90;;;;;;5076434;28;20032;-66
2021/07/31 03:18:42;;;;;;;12.32;6.75;;;15.50;99.90;;;;;;5075683;28;20131;-66
2021/07/31 03:21:10;;;;;;;11.80;6.53;;;15.50;99.90;;;;;;5076206;28;20145;-67
2021/07/31 03:23:37;;;;;;;14.23;7.47;;;15.40;99.90;;;;;;5076319;28;20036;-66
2021/07/31 03:26:03;;;;;;;14.98;7.47;;;15.50;99.90;;;;;;5075882;28;20048;-66
2021/07/31 03:28:29;;;;;;;14.35;7.15;;;15.50;99.90;;;;;;5075278;28;20036;-66
2021/07/31 03:30:56;;;;;;;14.43;7.93;;;15.50;99.90;;;;;;5075668;28;20071;-66
2021/07/31 03:33:21;;;;;;;13.40;8.40;;;15.50;99.90;;;;;;5075564;28;20032;-66
2021/07/31 03:35:50;;;;;;;11.27;8.70;;;15.60;99.90;;;;;;5075966;28;20044;-66
2021/07/31 03:38:15;;;;;;;19.63;9.27;;;15.60;99.90;;;;;;5076028;28;20051;-66
2021/07/31 03:40:41;;;;;;;16.23;8.15;;;15.50;99.90;;;;;;5075134;28;20032;-66
2021/07/31 03:43:07;;;;;;;16.77;9.52;;;15.50;99.90;;;;;;5075377;28;20112;-66
2021/07/31 03:45:36;;;;;;;16.25;9.20;;;15.50;99.90;;;;;;5075582;28;20032;-66
2021/07/31 03:48:02;;;;;;;14.40;9.32;;;15.50;99.90;;;;;;5075730;28;20071;-66
2021/07/31 03:50:28;;;;;;;17.30;10.07;;;15.50;99.90;;;;;;5075395;28;20074;-66
2021/07/31 03:52:53;;;;;;;19.27;9.30;;;15.50;99.90;;;;;;5075429;28;20048;-66
2021/07/31 03:55:20;;;;;;;16.02;9.80;;;15.50;99.90;;;;;;5074708;28;20143;-67
2021/07/31 03:58:00;;;;;;;13.50;8.95;;;15.40;99.90;;;;;;5075074;28;20052;-66
2021/07/31 04:00:26;;;;;;;17.55;8.98;;;15.50;99.90;;;;;;5074932;28;20158;-66
2021/07/31 04:02:52;;;;;;;17.33;9.45;;;15.50;99.90;;;;;;5073856;28;20497;-66
2021/07/31 04:05:18;;;;;;;20.10;9.45;;;15.50;99.90;;;;;;5075583;28;20411;-67
2021/07/31 04:07:46;;;;;;;16.40;9.23;;;15.50;99.90;;;;;;5075581;28;20044;-66
2021/07/31 04:10:12;;;;;;;15.60;8.43;;;15.40;99.90;;;;;;5074628;28;20102;-66
2021/07/31 04:12:38;;;;;;;18.17;8.45;;;15.50;99.90;;;;;;5074662;28;20056;-66
2021/07/31 04:15:04;;;;;;;14.40;8.48;;;15.50;99.90;;;;;;5074941;28;20124;-66
2021/07/31 04:17:32;;;;;;;12.75;8.35;;;15.50;99.90;;;;;;5075133;28;20491;-66
2021/07/31 04:19:57;;;;;;;14.10;7.82;;;15.50;99.90;;;;;;5073821;28;20120;-66
2021/07/31 04:22:23;;;;;;;17.60;8.10;;;15.50;99.90;;;;;;5075164;28;20071;-66
2021/07/31 04:24:52;;;;;;;13.75;9.10;;;15.50;99.90;;;;;;5074723;28;20135;-66
2021/07/31 04:27:18;;;;;;;12.27;8.32;;;15.50;99.90;;;;;;5074787;28;20209;-67
2021/07/31 04:29:43;;;;;;;17.13;8.48;;;15.60;99.90;;;;;;5074476;28;20050;-66
2021/07/31 04:32:09;;;;;;;14.90;8.68;;;15.60;99.90;;;;;;5074854;28;20044;-66
2021/07/31 04:34:35;;;;;;;12.82;7.85;;;15.60;99.90;;;;;;5075035;28;20037;-66
2021/07/31 04:37:01;;;;;;;17.40;8.82;;;15.60;99.90;;;;;;5074183;28;20090;-66
2021/07/31 04:39:26;;;;;;;12.88;7.60;;;15.60;99.90;;;;;;5074152;28;20040;-67
2021/07/31 04:41:52;;;;;;;13.45;8.25;;;15.60;99.90;;;;;;5074097;28;20407;-66
2021/07/31 04:44:18;;;;;;;12.82;7.65;;;15.70;99.90;;;;;;5074382;28;20055;-66
2021/07/31 04:46:43;;;;;;;18.35;7.53;;;15.60;99.90;;;;;;5074541;28;20047;-66
2021/07/31 04:49:09;;;;;;;13.57;7.65;;;15.60;99.90;;;;;;5073916;28;20087;-66
2021/07/31 04:51:35;;;;;;;13.10;7.97;;;15.60;99.90;;;;;;5073853;28;20123;-66
2021/07/31 04:54:00;;;;;;;14.63;7.65;;;15.60;99.90;;;;;;5074216;28;20036;-66
2021/07/31 04:56:26;;;;;;;12.77;7.75;;;15.60;99.90;;;;;;5073870;28;20036;-66
2021/07/31 04:58:52;;;;;;;18.02;8.15;;;15.60;99.90;;;;;;5072384;28;20119;-66
2021/07/31 05:01:18;;;;;;;12.85;7.25;;;15.60;99.90;;;;;;5074347;28;20544;-66
2021/07/31 05:03:43;;;;;;;13.25;8.20;;;15.70;99.90;;;;;;5074747;28;20127;-66
2021/07/31 05:06:09;;;;;;;15.10;8.35;;;15.60;99.90;;;;;;5074134;28;20062;-66
2021/07/31 05:08:35;;;;;;;15.57;7.68;;;15.60;99.90;;;;;;5073710;28;20037;-66
2021/07/31 05:11:06;;;;;;;15.52;7.82;;;15.70;99.90;;;;;;5073926;28;20040;-66
2021/07/31 05:13:32;;;;;;;18.85;7.32;;;15.70;99.90;;;;;;5089414;28;20045;-66
2021/07/31 05:15:57;;;;;;;11.00;6.97;;;15.80;99.90;;;;;;5073660;28;20504;-66
2021/07/31 05:18:23;;;;;;;16.25;8.65;;;15.80;99.90;;;;;;5073964;28;20385;-66
2021/07/31 05:20:49;;;;;;;17.27;7.15;;;15.80;99.90;;;;;;5073930;28;20052;-66
2021/07/31 05:23:15;;;;;;;15.52;9.05;;;15.80;99.90;;;;;;5073573;28;20044;-66
2021/07/31 05:25:43;;;;;;;15.57;7.55;;;15.80;99.90;;;;;;5073549;28;20481;-66
2021/07/31 05:28:13;;;;;;;18.25;7.40;;;15.90;99.90;;;;;;5073517;28;20041;-66
2021/07/31 05:30:42;;;;;;;14.18;6.40;;;15.90;99.90;;;;;;5072328;28;20033;-66
2021/07/31 05:33:08;;;;;;;20.10;7.18;;;15.90;99.90;;;;;;5073374;28;20531;-66
2021/07/31 05:35:34;;;;;;;17.70;6.30;;;15.90;99.90;;;;;;5073881;28;20044;-66
2021/07/31 05:38:03;;;;;;;16.50;7.57;;;15.90;99.90;;;;;;5073505;28;20040;-66
2021/07/31 05:40:29;;;;;;;20.75;7.13;;;16.00;99.90;;;;;;5072987;28;20059;-67
2021/07/31 05:42:55;;;;;;;18.20;6.97;;;15.90;99.90;;;;;;5073330;28;20045;-67
2021/07/31 05:45:21;;;;;;;19.83;7.32;;;16.00;99.90;;;;;;5073279;28;20037;-66
2021/07/31 05:47:46;;;;;;;17.92;6.85;;;16.10;99.90;;;;;;5072131;28;20047;-66
2021/07/31 05:50:12;;;;;;;21.15;7.38;;;16.10;99.90;;;;;;5072994;28;20037;-66
2021/07/31 05:52:39;;;;;;;18.63;6.20;;;16.30;99.90;;;;;;5073577;28;20040;-66
2021/07/31 05:55:07;;;;;;;15.55;5.38;;;16.40;99.90;;;;;;5073255;28;20086;-66
2021/07/31 05:57:33;;;;;;;17.52;5.82;;;16.50;99.90;;;;;;5072669;28;20044;-66
2021/07/31 05:59:59;;;;;;;18.35;5.40;;;16.50;99.90;;;;;;5072920;28;20047;-66
2021/07/31 06:02:26;;;;;;;14.63;5.32;;;16.40;99.90;;;;;;5073081;28;20530;-67
2021/07/31 06:04:51;;;;;;;19.08;6.20;;;16.50;99.90;;;;;;5073114;28;20107;-67
2021/07/31 06:07:17;;;;;;;23.80;6.18;;;16.50;99.90;;;;;;5073344;28;20186;-66
2021/07/31 06:09:46;;;;;;;20.33;5.53;;;16.50;99.90;;;;;;5073221;28;20401;-66
2021/07/31 06:12:12;;;;;;;17.58;5.13;;;16.50;99.90;;;;;;5073846;28;20036;-66
2021/07/31 06:14:39;;;;;;;21.33;6.03;;;16.50;99.90;;;;;;5073500;28;20173;-66
2021/07/31 06:17:05;;;;;;;17.50;5.35;;;16.50;99.90;;;;;;5073707;28;20065;-66
2021/07/31 06:19:32;;;;;;;19.95;5.40;;;16.50;99.90;;;;;;5071646;28;20048;-66
2021/07/31 06:21:59;;;;;;;15.95;4.20;;;16.50;99.90;;;;;;5072059;28;20043;-67
2021/07/31 06:24:25;;;;;;;19.20;5.68;;;16.60;99.90;;;;;;5073254;28;20488;-66
2021/07/31 06:26:51;;;;;;;16.92;5.05;;;16.60;99.90;;;;;;5073474;28;20115;-66
2021/07/31 06:29:17;;;;;;;14.35;4.15;;;16.60;99.90;;;;;;5072925;28;20124;-67
2021/07/31 06:31:43;;;;;;;17.20;4.95;;;16.70;99.90;;;;;;5072727;28;20041;-67
2021/07/31 06:34:08;;;;;;;11.85;3.63;;;16.80;99.90;;;;;;5073015;28;20047;-66
2021/07/31 06:36:34;;;;;;;13.57;4.22;;;17.00;99.90;;;;;;5073166;28;20105;-66
2021/07/31 06:39:04;;;;;;;14.63;4.03;;;17.30;99.90;;;;;;5072860;28;20067;-66
2021/07/31 06:41:30;;;;;;;15.52;4.05;;;17.70;99.90;;;;;;5072831;28;20512;-66
2021/07/31 06:43:57;;;;;;;10.98;3.47;;;17.60;99.90;;;;;;5076535;28;20511;-67
2021/07/31 06:46:24;;;;;;;11.30;3.75;;;17.50;99.90;;;;;;5076717;28;20064;-67
2021/07/31 06:48:51;;;;;;;15.65;5.10;;;17.40;99.90;;;;;;5075786;28;20507;-67
2021/07/31 06:51:17;;;;;;;14.13;4.47;;;17.30;99.90;;;;;;5076294;28;20081;-67
2021/07/31 06:53:43;;;;;;;16.00;4.70;;;17.20;99.90;;;;;;5076464;28;20072;-67
2021/07/31 06:56:09;;;;;;;17.33;4.13;;;17.30;99.90;;;;;;5076620;28;20373;-66
2021/07/31 06:58:35;;;;;;;17.33;4.20;;;17.30;99.90;;;;;;5076225;28;20047;-66
2021/07/31 07:01:01;;;;;;;11.95;4.30;;;17.30;99.90;;;;;;5076074;28;20040;-67
2021/07/31 07:03:27;;;;;;;12.10;4.80;;;17.20;99.90;;;;;;5076082;28;20040;-67
2021/07/31 07:05:52;;;;;;;19.20;5.22;;;17.10;99.90;;;;;;5076431;28;20059;-66
2021/07/31 07:08:18;;;;;;;16.92;5.32;;;17.00;99.90;;;;;;5076135;28;20044;-67
2021/07/31 07:10:43;;;;;;;15.75;5.10;;;17.00;99.90;;;;;;5075451;28;20064;-66
2021/07/31 07:13:09;;;;;;;16.83;4.43;;;16.90;99.90;;;;;;5075555;28;20067;-66
2021/07/31 07:15:38;;;;;;;13.88;4.30;;;16.80;99.90;;;;;;5074604;28;20524;-66
2021/07/31 07:18:03;;;;;;;17.27;4.53;;;16.80;99.90;;;;;;5075445;28;20477;-66
2021/07/31 07:20:29;;;;;;;17.80;5.72;;;16.80;99.90;;;;;;5075442;28;20085;-66
2021/07/31 07:22:55;;;;;;;20.83;5.13;;;16.80;99.90;;;;;;5076413;28;20037;-66
2021/07/31 07:25:20;;;;;;;17.60;4.65;;;16.70;99.90;;;;;;5076288;28;20036;-66
2021/07/31 07:27:46;;;;;;;14.23;4.90;;;16.70;99.90;;;;;;5075905;28;20040;-66
2021/07/31 07:30:12;;;;;;;17.20;5.10;;;16.70;99.90;;;;;;5075271;28;20044;-66
2021/07/31 07:32:38;;;;;;;14.60;4.88;;;16.70;99.90;;;;;;5075529;28;20515;-66
2021/07/31 07:35:05;;;;;;;16.08;5.45;;;16.70;99.90;;;;;;5075500;28;20092;-66
2021/07/31 07:37:30;;;;;;;23.58;4.43;;;16.70;99.90;;;;;;5075832;28;20044;-66
2021/07/31 07:39:58;;;;;;;14.30;4.70;;;16.90;99.90;;;;;;5075231;28;20039;-66
2021/07/31 07:42:23;;;;;;;18.75;5.25;;;16.90;99.90;;;;;;5075991;28;20060;-66
2021/07/31 07:44:49;;;;;;;12.82;4.38;;;16.90;99.90;;;;;;5075545;28;20445;-67
2021/07/31 07:47:15;;;;;;;20.85;5.15;;;16.90;99.90;;;;;;5075692;28;20461;-66
2021/07/31 07:49:40;;;;;;;14.68;5.25;;;17.00;99.90;;;;;;5074843;28;20480;-67
2021/07/31 07:52:06;;;;;;;11.48;4.55;;;17.20;99.90;;;;;;5075644;28;20040;-67
2021/07/31 07:54:32;;;;;;;11.05;3.60;;;17.20;99.90;;;;;;5074348;28;20116;-66
2021/07/31 07:56:57;;;;;;;14.45;4.13;;;17.20;99.90;;;;;;5074912;28;20419;-66
2021/07/31 07:59:24;;;;;;;12.13;4.15;;;17.30;99.90;;;;;;5074751;28;20048;-66
2021/07/31 08:01:49;;;;;;;12.43;3.58;;;17.30;99.90;;;;;;5075052;28;20040;-66
2021/07/31 08:04:15;;;;;;;18.67;4.28;;;17.50;99.90;;;;;;5075047;28;20073;-66
2021/07/31 08:06:41;;;;;;;8.98;3.15;;;17.50;99.90;;;;;;5075154;28;20044;-67
2021/07/31 08:09:07;;;;;;;11.57;4.07;;;17.90;99.90;;;;;;5074900;28;20040;-67
2021/07/31 08:11:33;;;;;;;8.70;3.72;;;18.30;99.90;;;;;;5074684;28;20469;-67
2021/07/31 08:14:00;;;;;;;12.52;3.58;;;18.50;99.90;;;;;;5074830;28;20499;-67
2021/07/31 08:16:25;;;;;;;11.50;3.30;;;18.40;99.90;;;;;;5074982;28;20040;-67
2021/07/31 08:18:53;;;;;;;9.93;3.42;;;18.20;99.90;;;;;;5074422;28;20039;-67
2021/07/31 08:21:20;;;;;;;10.05;3.60;;;18.10;99.90;;;;;;5075070;28;20055;-67
2021/07/31 08:23:46;;;;;;;9.65;3.13;;;18.00;99.90;;;;;;5075348;28;20028;-67
2021/07/31 08:26:13;;;;;;;15.13;4.22;;;17.80;99.90;;;;;;5074640;28;20040;-67
2021/07/31 08:28:42;;;;;;;18.80;4.65;;;17.60;99.90;;;;;;5074360;28;20086;-66
2021/07/31 08:31:09;;;;;;;15.00;4.57;;;17.50;99.90;;;;;;5074294;28;20066;-67
2021/07/31 08:33:35;;;;;;;17.50;4.28;;;17.30;99.90;;;;;;5075122;28;20036;-66
2021/07/31 08:36:03;;;;;;;14.23;3.72;;;17.10;99.90;;;;;;5074869;28;20036;-68
2021/07/31 08:38:29;;;;;;;16.02;4.20;;;17.00;99.90;;;;;;5073899;28;20404;-66
2021/07/31 08:40:55;;;;;;;10.93;4.15;;;17.00;99.90;;;;;;5074273;28;20044;-66
2021/07/31 08:43:21;;;;;;;16.60;4.90;;;16.90;99.90;;;;;;5074757;28;20036;-66
2021/07/31 08:45:47;;;;;;;13.90;5.22;;;16.90;99.90;;;;;;5074541;28;20497;-67
2021/07/31 08:48:14;;;;;;;12.20;4.05;;;16.90;99.90;;;;;;5074162;28;20044;-66
2021/07/31 08:50:40;;;;;;;12.85;4.80;;;16.90;99.90;;;;;;5073688;28;20531;-66
2021/07/31 08:53:07;;;;;;;11.70;4.63;;;16.90;99.90;;;;;;5074173;28;20040;-67
2021/07/31 08:55:32;;;;;;;11.32;4.70;;;16.80;99.90;;;;;;5074179;28;20048;-66
2021/07/31 08:58:03;;;;;;;12.13;4.03;;;16.90;99.90;;;;;;5074071;28;20100;-67
2021/07/31 09:00:29;;;;;;;12.98;4.80;;;17.00;99.90;;;;;;5073784;28;20045;-67
2021/07/31 09:02:55;;;;;;;22.02;5.70;;;17.20;99.90;;;;;;5074312;28;20157;-67
2021/07/31 09:05:34;;;;;;;15.57;6.32;;;17.70;99.90;;;;;;5073887;28;20037;-67
2021/07/31 09:08:01;;;;;;;16.58;6.20;;;18.10;99.90;;;;;;5074009;28;20507;-66
2021/07/31 09:10:28;;;;;;;11.90;4.50;;;18.50;99.90;;;;;;5073722;28;20059;-67
2021/07/31 09:13:00;;;;;;;10.13;4.30;;;18.90;99.90;;;;;;5073676;28;20045;-66
2021/07/31 09:15:37;;;;;;;12.10;4.03;;;19.10;99.90;;;;;;5073963;28;20051;-67
2021/07/31 09:18:29;;;;;;;11.20;4.47;;;19.20;99.90;;;;;;5073554;28;20037;-67
2021/07/31 09:21:06;;;;;;;9.30;3.97;;;18.90;99.90;;;;;;5073616;28;20564;-71
2021/07/31 09:23:44;;;;;;;12.88;4.43;;;18.70;99.90;;;;;;5073681;28;20480;-71
2021/07/31 09:26:17;;;;;;;12.30;4.22;;;18.40;99.90;;;;;;5073703;28;20044;-70
2021/07/31 09:28:45;;;;;;;13.95;4.45;;;18.20;99.90;;;;;;5073247;28;20500;-71
2021/07/31 09:31:17;;;;;;;13.15;4.05;;;18.00;99.90;;;;;;5073514;28;20115;-70
2021/07/31 09:33:45;;;;;;;13.63;3.67;;;17.70;99.90;;;;;;5073748;28;20465;-71
2021/07/31 09:36:11;;;;;;;9.57;2.75;;;17.50;99.90;;;;;;5073668;28;20036;-71
2021/07/31 09:38:38;;;;;;;13.23;2.70;;;17.40;99.90;;;;;;5073497;28;20086;-71
2021/07/31 09:41:29;;;;;;;11.45;3.08;;;17.30;99.90;;;;;;5073514;28;20484;-71
2021/07/31 09:44:03;;;;;;;10.13;4.32;;;17.30;99.90;;;;;;5073575;28;20431;-71
2021/07/31 09:46:39;;;;;;;11.80;4.95;;;17.30;99.90;;;;;;5073313;28;20079;-71
2021/07/31 09:49:07;;;;;;;10.80;4.70;;;17.40;99.90;;;;;;5072956;28;20036;-71
2021/07/31 09:51:42;;;;;;;12.57;3.88;;;17.50;99.90;;;;;;5073800;28;20039;-70
2021/07/31 09:54:10;;;;;;;13.95;4.65;;;17.60;99.90;;;;;;5073617;28;20043;-71
2021/07/31 09:56:41;;;;;;;14.40;4.63;;;17.50;99.90;;;;;;5073378;28;20469;-71
2021/07/31 09:59:07;;;;;;;17.20;5.72;;;17.60;99.90;;;;;;5073079;28;20549;-71
2021/07/31 10:01:41;;;;;;;12.60;4.13;;;17.70;99.90;;;;;;5073670;28;20044;-71
2021/07/31 10:04:07;;;;;;;;;;;17.70;99.90;;;;;;5074088;28;20044;-71
2021/07/31 10:06:33;;;;;;;13.20;3.70;;;17.60;99.90;;;;;;5073044;28;19962;-73
2021/07/31 10:09:04;;;;;;;9.05;3.90;;;17.60;99.90;;;;;;5073067;28;20127;-72
2021/07/31 10:11:36;;;;;;;9.45;3.95;;;17.70;99.90;;;;;;5073380;28;20032;-73
2021/07/31 10:14:04;;;;;;;10.50;3.85;;;17.70;99.90;;;;;;5072966;28;20056;-72
2021/07/31 10:16:32;;;;;;;10.38;3.88;;;17.70;99.90;;;;;;5073419;28;20037;-72
2021/07/31 10:19:01;;;;;;;9.15;3.60;;;17.80;99.90;;;;;;5076764;28;20041;-73
2021/07/31 10:21:28;;;;;;;13.35;3.97;;;17.70;99.90;;;;;;5076856;28;20112;-73
2021/07/31 10:24:03;;;;;;;9.18;3.63;;;17.60;99.90;;;;;;5076833;28;20086;-73
2021/07/31 10:26:30;;;;;;;12.30;3.60;;;17.60;99.90;;;;;;5077465;28;20036;-72
2021/07/31 10:29:27;;;;;;;13.50;4.32;;;17.60;99.90;;;;;;5076859;28;20040;-73
2021/07/31 10:32:16;;;;;;;10.65;4.18;;;17.60;99.90;;;;;;5076778;28;20040;-73
2021/07/31 10:34:56;;;;;;;13.77;4.63;;;17.80;99.90;;;;;;5077215;28;20044;-73
2021/07/31 10:37:41;;;;;;;8.32;4.80;;;18.20;99.90;;;;;;5077159;28;20040;-73
2021/07/31 10:40:09;;;;;;;13.82;4.55;;;18.60;99.90;;;;;;5076156;28;20041;-73
2021/07/31 10:42:47;;;;;;;9.70;3.95;;;18.60;99.90;;;;;;5076777;28;20036;-73
2021/07/31 10:45:16;;;;;;;11.70;3.95;;;18.60;99.90;;;;;;5077035;28;20043;-73
2021/07/31 10:47:42;;;;;;;11.02;4.82;;;18.60;99.90;;;;;;5076443;28;20439;-73
2021/07/31 10:50:26;;;;;;;12.30;4.35;;;18.70;99.90;;;;;;5076082;28;20037;-73
2021/07/31 10:52:59;;;;;;;12.98;4.40;;;18.80;99.90;;;;;;5076354;28;20032;-73
2021/07/31 10:55:25;;;;;;;;;;;18.80;99.90;;;;;;5077365;28;20040;-72
2021/07/31 10:57:54;;;;;;;9.95;3.25;;;18.80;99.90;;;;;;5076107;28;20338;-73
2021/07/31 11:00:20;;;;;;;9.25;3.65;;;18.80;99.90;;;;;;5074632;28;20079;-73
2021/07/31 11:02:46;;;;;;;14.07;3.83;;;18.70;99.90;;;;;;5076364;28;20068;-73
2021/07/31 11:05:12;;;;;;;12.15;3.28;;;18.60;99.90;;;;;;5076127;28;20064;-72
2021/07/31 11:07:56;;;;;;;13.15;3.65;;;18.60;99.90;;;;;;5076103;28;20036;-73
2021/07/31 11:10:43;;;;;;;10.48;2.95;;;18.70;99.90;;;;;;5075574;28;20473;-73
2021/07/31 11:13:18;;;;;;;8.20;3.13;;;18.80;99.90;;;;;;5076020;28;20036;-73
2021/07/31 11:15:56;;;;;;;12.63;3.83;;;18.80;99.90;;;;;;5076208;28;20032;-72
2021/07/31 11:18:25;;;;;;;7.35;2.88;;;18.70;99.90;;;;;;5075793;28;20033;-74
2021/07/31 11:20:51;;;;;;;7.63;3.50;;;18.60;99.90;;;;;;5075988;28;20047;-73
2021/07/31 11:23:19;;;;;;;15.90;3.60;;;18.60;99.90;;;;;;5076060;28;20041;-73
2021/07/31 11:25:45;;;;;;;9.27;3.40;;;18.60;99.90;;;;;;5075902;28;20043;-73
2021/07/31 11:28:11;;;;;;;11.98;3.60;;;18.50;99.90;;;;;;5074899;28;20473;-72
2021/07/31 11:30:47;;;;;;;7.05;3.80;;;18.40;99.90;;;;;;5075162;28;20093;-72
2021/07/31 11:33:16;;;;;;;10.43;4.47;;;18.30;99.90;;;;;;5075756;28;20040;-72
2021/07/31 11:35:42;;;;;;;10.80;4.47;;;18.20;99.90;;;;;;5075860;28;20044;-72
2021/07/31 11:38:29;;;;;;;11.35;4.18;;;18.10;99.90;;;;;;5075641;28;20530;-73
2021/07/31 11:41:19;;;;;;;8.45;3.88;;;18.00;99.90;;;;;;5075552;28;20090;-73
2021/07/31 11:43:56;;;;;;;9.52;4.00;;;17.80;99.90;;;;;;5075937;28;20131;-72
2021/07/31 11:46:27;;;;;;;11.18;4.10;;;17.70;99.90;;;;;;5075923;28;20087;-73
2021/07/31 11:48:54;;;;;;;12.23;4.82;;;17.70;99.90;;;;;;5074933;28;20044;-73
2021/07/31 11:51:20;;;;;;;10.48;4.68;;;17.80;99.90;;;;;;5075143;28;20041;-73
2021/07/31 11:53:46;;;;;;;9.25;4.90;;;17.80;99.90;;;;;;5075151;28;20048;-73
2021/07/31 11:56:17;;;;;;;11.00;5.55;;;17.90;99.90;;;;;;5075880;28;20036;-73
2021/07/31 11:58:44;;;;;;;9.52;4.97;;;18.20;99.90;;;;;;5074629;28;20040;-73
2021/07/31 12:01:11;;;;;;;11.93;5.65;;;18.40;99.90;;;;;;5075220;28;20041;-73
2021/07/31 12:04:04;;;;;;;11.85;6.35;;;18.70;99.90;;;;;;5075353;28;20361;-73
2021/07/31 12:06:32;;;;;;;10.75;6.28;;;19.00;99.90;;;;;;5075840;28;20052;-72
2021/07/31 12:09:01;;;;;;;10.35;5.95;;;19.20;99.90;;;;;;5082906;28;20039;-73
2021/07/31 12:11:38;;;;;;;11.65;6.30;;;19.30;99.90;;;;;;5095429;28;20372;-71
2021/07/31 12:14:31;;;;;;;10.32;4.78;;;19.50;99.90;;;;;;5095248;28;20047;-72
2021/07/31 12:17:13;;;;;;;;;;;19.60;99.90;;;;;;5096016;28;20036;-72
2021/07/31 12:19:58;;;;;;;10.63;4.38;;;19.60;99.90;;;;;;5094582;28;19983;-73
2021/07/31 12:22:28;;;;;;;7.40;4.07;;;19.70;99.90;;;;;;5094887;28;20400;-72
2021/07/31 12:25:13;;;;;;;9.05;4.10;;;19.60;99.90;;;;;;5095326;28;20361;-72
2021/07/31 12:28:10;;;;;;;9.18;4.63;;;19.40;99.90;;;;;;5095487;28;20559;-73
2021/07/31 12:30:37;;;;;;;7.10;3.33;;;19.30;99.90;;;;;;5094564;28;20349;-72
2021/07/31 12:33:06;;;;;;;6.25;3.00;;;19.20;99.90;;;;;;5095055;28;20036;-72
2021/07/31 12:35:52;;;;;;;6.65;3.15;;;19.30;99.90;;;;;;5094743;28;20101;-72
2021/07/31 12:38:24;;;;;;;5.13;3.05;;;19.40;99.90;;;;;;5093989;28;20408;-72
2021/07/31 12:40:55;;;;;;;6.95;3.03;;;19.50;99.90;;;;;;5093832;28;20543;-72
2021/07/31 12:43:22;;;;;;;7.60;3.13;;;19.70;99.90;;;;;;5093843;28;20113;-72
2021/07/31 12:45:50;;;;;;;3.92;2.95;;;19.80;99.90;;;;;;5093247;28;20429;-73